Kezdőlap
METAR-TAF:

METAR-TAF

Repülőterek :

Batajnica, Szerbia

földrajzi szélesség: 44-56-07N, földrajzi hosszúság: 020-15-27E, magasság: 86 m

Jelenlegi meteorológiai megfigyelések

A jelentés 24 perccel ezelõtt készült, 21:00 UTC
Kelet-északkeleti szél 3 kt, észak-északkeleti és keleti között változik
Hőmérséklet 19°C
Páratartalom 78%
Légköri nyomás 1019 hPa
Látótávolság 10 km, vagy több
felhőtlen 1500 m magasságban, és nincs gomolyfelhõ

METAR: LYBT 272100Z 07003KT 030V090 CAVOK 19/15 Q1019 NOSIG

Idő: 23:24 (21:24 UTC)

Előrejelzés

A jelentés 4 órával és 24 perccel ezelõtt készült, 17:00 UTC
Az előrejelzés 27-én 18 óra UTC és 28-én 18 óra UTC között érvényes
Keleti szél 7 kt
Látótávolság 10 km, vagy több
felhőtlen 1500 m magasságban, és nincs gomolyfelhõ

TAF: LYBT 271700Z 2718/2818 08007KT CAVOK TX29/2813Z TN15/2803Z

Meteorológiai megfigyelések és előrejelzések több, mint 4000 repülőtéren (METAR és TAF jelentéseket).

A térképen piros és sárga pontok jelzik az elérhető meteorológiai állomásokat.

Mozgassa az egeret a pont fölött, hogy megjelenjen az állomás neve.

Azután kattintson az időjárási megfigyelések és előrejelzések megtekintéséhez.

A térkép megváltoztatása: kattintson a fekete keresztel jelölt zöld gombra ráközelítéshez, a vonallal jelölt zöld gombra távolításhoz, vagy a zöld nyilakra a szomszédos térképek eléréséhez.


METAR-TAF: